首页
METAR-TAF:

METAR-TAF

机场 :

利欣加, 莫桑比克

纬度: 13-18S, 经度: 035-14E, 海拔: 1364米

当前天气观测

该预报发布于50分钟前的00:00 UTC
风速11节,风向南转南东
温度 15°C
湿度 100%
气压 1024 hPa
能见度10公里或以上
多云层高于200英尺

METAR: FQLC 160000Z 15011KT 9999 BKN002 15/15 Q1024

时间: 02:50 (00:50 UTC)

预报

该预报发布于2小时和50分钟前的22:00 UTC
预报有效从16日的 00点(UTC)到 17日的 00点(UTC)
风速7节,风向东南
能见度10公里或以上
少量云层高于1500英尺
几率 30% :
短暂存在
从 16日的 00点(UTC)到 16日的 06点(UTC)
能見度: 1000
散云层高于1000英尺
多云层高于1500英尺
轻雾,

TAF: FQLC 152200Z 1600/1700 14007KT 9999 FEW015 TX23/1613Z TN13/1602Z PROB30 TEMPO 1600/1606 1000 BR SCT010 BKN015

超过4000个机场的气象观测和天气预报(METAR&TAF报告)。

可查询的气象台以黄色和红色小点在地图上表示。

将鼠标移到小点上方,可查看气象台名称。

然后点击查看天气观测和预报。

如需切换地图:点击带黑十字的绿色按钮放大地图;点击带横线的绿色按钮缩小地图;或者点击绿色箭头查看邻近地区的地图。


METAR-TAF: